sensor_id;sensor_type;location;lat;lon;timestamp;P1;durP1;ratioP1;P2;durP2;ratioP2
27921;SDS011;15261;50.356;10.340;2023-06-22T00:00:51;10.18;;;9.27;;
27921;SDS011;15261;50.356;10.340;2023-06-22T00:03:18;10.82;;;9.82;;
27921;SDS011;15261;50.356;10.340;2023-06-22T00:05:48;11.02;;;9.88;;
27921;SDS011;15261;50.356;10.340;2023-06-22T00:08:14;10.63;;;9.43;;
27921;SDS011;15261;50.356;10.340;2023-06-22T00:10:42;9.50;;;8.70;;
27921;SDS011;15261;50.356;10.340;2023-06-22T00:13:08;9.70;;;8.57;;
27921;SDS011;15261;50.356;10.340;2023-06-22T00:15:34;9.85;;;8.95;;
27921;SDS011;15261;50.356;10.340;2023-06-22T00:18:01;10.05;;;9.10;;
27921;SDS011;15261;50.356;10.340;2023-06-22T00:20:27;9.88;;;8.98;;
27921;SDS011;15261;50.356;10.340;2023-06-22T00:22:53;10.50;;;9.50;;
27921;SDS011;15261;50.356;10.340;2023-06-22T00:25:19;9.63;;;8.63;;
27921;SDS011;15261;50.356;10.340;2023-06-22T00:27:45;9.48;;;8.68;;
27921;SDS011;15261;50.356;10.340;2023-06-22T00:30:11;12.73;;;8.93;;
27921;SDS011;15261;50.356;10.340;2023-06-22T00:32:36;10.05;;;8.55;;
27921;SDS011;15261;50.356;10.340;2023-06-22T00:35:02;11.82;;;9.43;;
27921;SDS011;15261;50.356;10.340;2023-06-22T00:37:28;9.32;;;8.40;;
27921;SDS011;15261;50.356;10.340;2023-06-22T00:39:54;9.07;;;8.23;;
27921;SDS011;15261;50.356;10.340;2023-06-22T00:42:21;10.38;;;9.23;;
27921;SDS011;15261;50.356;10.340;2023-06-22T00:44:46;10.10;;;9.13;;
27921;SDS011;15261;50.356;10.340;2023-06-22T00:47:16;9.30;;;8.50;;
27921;SDS011;15261;50.356;10.340;2023-06-22T00:49:43;10.07;;;8.98;;
27921;SDS011;15261;50.356;10.340;2023-06-22T00:52:09;10.13;;;9.10;;
27921;SDS011;15261;50.356;10.340;2023-06-22T00:54:42;10.10;;;8.75;;
27921;SDS011;15261;50.356;10.340;2023-06-22T00:57:14;9.88;;;8.88;;
27921;SDS011;15261;50.356;10.340;2023-06-22T00:59:43;10.38;;;8.23;;
27921;SDS011;15261;50.356;10.340;2023-06-22T02:36:50;10.23;;;9.32;;
27921;SDS011;15261;50.356;10.340;2023-06-22T02:39:20;10.82;;;9.70;;
27921;SDS011;15261;50.356;10.340;2023-06-22T02:41:47;17.08;;;10.90;;
27921;SDS011;15261;50.356;10.340;2023-06-22T02:44:14;13.90;;;9.85;;
27921;SDS011;15261;50.356;10.340;2023-06-22T02:46:40;12.98;;;9.48;;
27921;SDS011;15261;50.356;10.340;2023-06-22T02:49:05;11.50;;;9.70;;
27921;SDS011;15261;50.356;10.340;2023-06-22T02:51:33;11.25;;;10.07;;
27921;SDS011;15261;50.356;10.340;2023-06-22T02:53:59;13.18;;;10.57;;
27921;SDS011;15261;50.356;10.340;2023-06-22T02:56:25;10.82;;;9.88;;
27921;SDS011;15261;50.356;10.340;2023-06-22T02:58:51;10.52;;;9.48;;
27921;SDS011;15261;50.356;10.340;2023-06-22T03:01:17;11.35;;;10.25;;
27921;SDS011;15261;50.356;10.340;2023-06-22T03:03:48;12.63;;;10.35;;
27921;SDS011;15261;50.356;10.340;2023-06-22T03:06:13;12.18;;;11.02;;
27921;SDS011;15261;50.356;10.340;2023-06-22T03:08:39;11.90;;;10.73;;
27921;SDS011;15261;50.356;10.340;2023-06-22T03:11:06;12.07;;;10.13;;
27921;SDS011;15261;50.356;10.340;2023-06-22T03:13:32;11.63;;;10.60;;
27921;SDS011;15261;50.356;10.340;2023-06-22T03:15:58;11.30;;;10.30;;
27921;SDS011;15261;50.356;10.340;2023-06-22T03:18:24;13.57;;;9.85;;
27921;SDS011;15261;50.356;10.340;2023-06-22T03:20:49;11.15;;;10.13;;
27921;SDS011;15261;50.356;10.340;2023-06-22T03:23:15;10.20;;;9.30;;
27921;SDS011;15261;50.356;10.340;2023-06-22T03:25:41;11.55;;;10.43;;
27921;SDS011;15261;50.356;10.340;2023-06-22T03:28:09;10.85;;;9.95;;
27921;SDS011;15261;50.356;10.340;2023-06-22T03:30:35;10.18;;;9.18;;
27921;SDS011;15261;50.356;10.340;2023-06-22T03:33:00;11.18;;;10.18;;
27921;SDS011;15261;50.356;10.340;2023-06-22T03:35:26;10.95;;;9.80;;
27921;SDS011;15261;50.356;10.340;2023-06-22T03:37:51;10.95;;;9.88;;
27921;SDS011;15261;50.356;10.340;2023-06-22T03:40:17;11.15;;;9.98;;
27921;SDS011;15261;50.356;10.340;2023-06-22T03:42:43;12.02;;;9.52;;
27921;SDS011;15261;50.356;10.340;2023-06-22T03:45:08;13.30;;;10.07;;
27921;SDS011;15261;50.356;10.340;2023-06-22T03:47:34;10.45;;;9.38;;
27921;SDS011;15261;50.356;10.340;2023-06-22T03:50:00;11.70;;;9.77;;
27921;SDS011;15261;50.356;10.340;2023-06-22T03:52:28;10.07;;;9.18;;
27921;SDS011;15261;50.356;10.340;2023-06-22T03:54:54;10.18;;;9.25;;
27921;SDS011;15261;50.356;10.340;2023-06-22T03:57:20;10.60;;;9.57;;
27921;SDS011;15261;50.356;10.340;2023-06-22T03:59:45;10.63;;;9.40;;
27921;SDS011;15261;50.356;10.340;2023-06-22T04:02:11;12.48;;;8.75;;
27921;SDS011;15261;50.356;10.340;2023-06-22T04:04:37;10.35;;;9.43;;
27921;SDS011;15261;50.356;10.340;2023-06-22T04:07:04;10.63;;;9.52;;
27921;SDS011;15261;50.356;10.340;2023-06-22T04:09:30;10.65;;;9.65;;
27921;SDS011;15261;50.356;10.340;2023-06-22T04:11:55;11.85;;;9.45;;
27921;SDS011;15261;50.356;10.340;2023-06-22T04:14:21;9.98;;;8.93;;
27921;SDS011;15261;50.356;10.340;2023-06-22T04:16:46;11.80;;;9.55;;
27921;SDS011;15261;50.356;10.340;2023-06-22T04:19:12;10.00;;;9.00;;
27921;SDS011;15261;50.356;10.340;2023-06-22T04:21:41;11.02;;;9.90;;
27921;SDS011;15261;50.356;10.340;2023-06-22T04:24:08;10.25;;;9.25;;
27921;SDS011;15261;50.356;10.340;2023-06-22T04:26:33;12.10;;;9.15;;
27921;SDS011;15261;50.356;10.340;2023-06-22T04:29:01;11.15;;;9.82;;
27921;SDS011;15261;50.356;10.340;2023-06-22T04:31:30;10.57;;;9.57;;
27921;SDS011;15261;50.356;10.340;2023-06-22T04:34:01;11.05;;;9.93;;
27921;SDS011;15261;50.356;10.340;2023-06-22T04:39:03;13.35;;;9.43;;
27921;SDS011;15261;50.356;10.340;2023-06-22T04:41:34;11.07;;;9.23;;
27921;SDS011;15261;50.356;10.340;2023-06-22T04:44:07;11.30;;;10.20;;
27921;SDS011;15261;50.356;10.340;2023-06-22T04:46:37;12.40;;;10.32;;
27921;SDS011;15261;50.356;10.340;2023-06-22T04:49:05;10.68;;;9.65;;
27921;SDS011;15261;50.356;10.340;2023-06-22T04:51:38;11.80;;;10.18;;
27921;SDS011;15261;50.356;10.340;2023-06-22T04:54:07;10.95;;;9.93;;
27921;SDS011;15261;50.356;10.340;2023-06-22T04:56:34;11.13;;;9.90;;
27921;SDS011;15261;50.356;10.340;2023-06-22T04:58:59;14.70;;;10.07;;
27921;SDS011;15261;50.356;10.340;2023-06-22T05:01:25;11.30;;;9.98;;
27921;SDS011;15261;50.356;10.340;2023-06-22T05:03:51;17.77;;;8.57;;
27921;SDS011;15261;50.356;10.340;2023-06-22T05:06:25;18.23;;;9.90;;
27921;SDS011;15261;50.356;10.340;2023-06-22T05:08:54;18.90;;;9.70;;
27921;SDS011;15261;50.356;10.340;2023-06-22T05:11:24;15.60;;;9.48;;
27921;SDS011;15261;50.356;10.340;2023-06-22T05:13:53;9.43;;;8.13;;
27921;SDS011;15261;50.356;10.340;2023-06-22T05:16:20;9.75;;;8.95;;
27921;SDS011;15261;50.356;10.340;2023-06-22T05:18:55;10.65;;;9.65;;
27921;SDS011;15261;50.356;10.340;2023-06-22T05:21:22;12.00;;;10.02;;
27921;SDS011;15261;50.356;10.340;2023-06-22T05:23:48;11.98;;;9.90;;
27921;SDS011;15261;50.356;10.340;2023-06-22T05:26:14;11.43;;;10.32;;
27921;SDS011;15261;50.356;10.340;2023-06-22T05:28:39;17.15;;;11.13;;
27921;SDS011;15261;50.356;10.340;2023-06-22T05:31:05;19.00;;;10.73;;
27921;SDS011;15261;50.356;10.340;2023-06-22T05:33:31;11.32;;;10.15;;
27921;SDS011;15261;50.356;10.340;2023-06-22T05:35:56;10.38;;;9.32;;
27921;SDS011;15261;50.356;10.340;2023-06-22T05:38:22;10.52;;;9.50;;
27921;SDS011;15261;50.356;10.340;2023-06-22T05:40:47;10.23;;;9.02;;
27921;SDS011;15261;50.356;10.340;2023-06-22T05:43:13;10.10;;;9.13;;
27921;SDS011;15261;50.356;10.340;2023-06-22T05:45:38;11.50;;;9.13;;
27921;SDS011;15261;50.356;10.340;2023-06-22T05:48:04;9.20;;;8.40;;
27921;SDS011;15261;50.356;10.340;2023-06-22T05:50:30;14.82;;;9.32;;
27921;SDS011;15261;50.356;10.340;2023-06-22T05:52:56;10.38;;;9.15;;
27921;SDS011;15261;50.356;10.340;2023-06-22T05:55:21;9.25;;;8.32;;
27921;SDS011;15261;50.356;10.340;2023-06-22T05:57:47;10.52;;;8.77;;
27921;SDS011;15261;50.356;10.340;2023-06-22T06:00:12;10.77;;;9.05;;
27921;SDS011;15261;50.356;10.340;2023-06-22T06:02:39;10.80;;;9.20;;
27921;SDS011;15261;50.356;10.340;2023-06-22T06:05:09;9.75;;;8.77;;
27921;SDS011;15261;50.356;10.340;2023-06-22T06:07:41;11.00;;;9.45;;
27921;SDS011;15261;50.356;10.340;2023-06-22T06:10:07;10.32;;;9.25;;
27921;SDS011;15261;50.356;10.340;2023-06-22T06:12:34;9.70;;;8.80;;
27921;SDS011;15261;50.356;10.340;2023-06-22T06:15:00;10.23;;;8.82;;
27921;SDS011;15261;50.356;10.340;2023-06-22T06:17:25;9.65;;;8.85;;
27921;SDS011;15261;50.356;10.340;2023-06-22T06:19:51;9.80;;;8.32;;
27921;SDS011;15261;50.356;10.340;2023-06-22T06:22:17;8.95;;;8.15;;
27921;SDS011;15261;50.356;10.340;2023-06-22T06:24:44;9.45;;;8.68;;
27921;SDS011;15261;50.356;10.340;2023-06-22T06:27:10;12.73;;;8.05;;
27921;SDS011;15261;50.356;10.340;2023-06-22T06:29:36;8.95;;;8.25;;
27921;SDS011;15261;50.356;10.340;2023-06-22T06:32:01;8.77;;;7.88;;
27921;SDS011;15261;50.356;10.340;2023-06-22T06:34:27;8.63;;;7.82;;
27921;SDS011;15261;50.356;10.340;2023-06-22T06:36:53;8.82;;;8.02;;
27921;SDS011;15261;50.356;10.340;2023-06-22T06:39:18;10.82;;;7.68;;
27921;SDS011;15261;50.356;10.340;2023-06-22T06:41:45;9.02;;;8.07;;
27921;SDS011;15261;50.356;10.340;2023-06-22T06:44:11;8.38;;;7.57;;
27921;SDS011;15261;50.356;10.340;2023-06-22T06:46:36;8.73;;;7.75;;
27921;SDS011;15261;50.356;10.340;2023-06-22T06:49:02;8.85;;;8.15;;
27921;SDS011;15261;50.356;10.340;2023-06-22T06:51:28;8.38;;;7.75;;
27921;SDS011;15261;50.356;10.340;2023-06-22T06:53:54;8.48;;;7.72;;
27921;SDS011;15261;50.356;10.340;2023-06-22T06:56:20;23.58;;;9.57;;
27921;SDS011;15261;50.356;10.340;2023-06-22T06:58:45;9.88;;;7.07;;
27921;SDS011;15261;50.356;10.340;2023-06-22T07:01:11;8.05;;;7.20;;
27921;SDS011;15261;50.356;10.340;2023-06-22T07:03:37;8.05;;;7.45;;
27921;SDS011;15261;50.356;10.340;2023-06-22T07:06:03;8.13;;;7.38;;
27921;SDS011;15261;50.356;10.340;2023-06-22T07:08:29;7.82;;;7.20;;
27921;SDS011;15261;50.356;10.340;2023-06-22T07:10:54;8.75;;;7.97;;
27921;SDS011;15261;50.356;10.340;2023-06-22T07:13:20;8.30;;;7.47;;
27921;SDS011;15261;50.356;10.340;2023-06-22T07:15:46;8.13;;;7.32;;
27921;SDS011;15261;50.356;10.340;2023-06-22T07:18:12;11.02;;;7.82;;
27921;SDS011;15261;50.356;10.340;2023-06-22T07:20:37;10.02;;;7.32;;
27921;SDS011;15261;50.356;10.340;2023-06-22T07:23:04;8.02;;;7.20;;
27921;SDS011;15261;50.356;10.340;2023-06-22T07:25:30;9.02;;;7.43;;
27921;SDS011;15261;50.356;10.340;2023-06-22T07:27:59;8.15;;;7.45;;
27921;SDS011;15261;50.356;10.340;2023-06-22T07:30:29;8.15;;;7.35;;
27921;SDS011;15261;50.356;10.340;2023-06-22T07:32:56;8.25;;;7.50;;
27921;SDS011;15261;50.356;10.340;2023-06-22T07:35:23;8.23;;;7.50;;
27921;SDS011;15261;50.356;10.340;2023-06-22T07:37:49;10.00;;;7.45;;
27921;SDS011;15261;50.356;10.340;2023-06-22T07:40:14;8.45;;;7.10;;
27921;SDS011;15261;50.356;10.340;2023-06-22T07:42:40;11.40;;;7.57;;
27921;SDS011;15261;50.356;10.340;2023-06-22T07:45:06;9.10;;;7.53;;
27921;SDS011;15261;50.356;10.340;2023-06-22T07:47:35;7.97;;;7.18;;
27921;SDS011;15261;50.356;10.340;2023-06-22T07:50:01;7.85;;;7.15;;
27921;SDS011;15261;50.356;10.340;2023-06-22T07:52:28;8.15;;;7.35;;
27921;SDS011;15261;50.356;10.340;2023-06-22T07:54:53;9.88;;;7.47;;
27921;SDS011;15261;50.356;10.340;2023-06-22T07:57:19;9.48;;;7.22;;
27921;SDS011;15261;50.356;10.340;2023-06-22T07:59:45;8.00;;;7.30;;
27921;SDS011;15261;50.356;10.340;2023-06-22T08:02:11;7.80;;;7.10;;
27921;SDS011;15261;50.356;10.340;2023-06-22T08:04:37;7.72;;;7.03;;
27921;SDS011;15261;50.356;10.340;2023-06-22T08:07:03;11.70;;;7.30;;
27921;SDS011;15261;50.356;10.340;2023-06-22T08:09:29;8.00;;;7.20;;
27921;SDS011;15261;50.356;10.340;2023-06-22T08:11:55;9.13;;;6.65;;
27921;SDS011;15261;50.356;10.340;2023-06-22T08:14:21;8.07;;;6.82;;
27921;SDS011;15261;50.356;10.340;2023-06-22T08:16:51;8.48;;;7.18;;
27921;SDS011;15261;50.356;10.340;2023-06-22T08:19:16;7.85;;;6.80;;
27921;SDS011;15261;50.356;10.340;2023-06-22T08:21:42;9.20;;;6.90;;
27921;SDS011;15261;50.356;10.340;2023-06-22T08:24:08;8.32;;;6.80;;
27921;SDS011;15261;50.356;10.340;2023-06-22T08:26:34;7.50;;;6.80;;
27921;SDS011;15261;50.356;10.340;2023-06-22T08:29:04;7.82;;;6.70;;
27921;SDS011;15261;50.356;10.340;2023-06-22T08:31:30;7.25;;;6.65;;
27921;SDS011;15261;50.356;10.340;2023-06-22T08:33:58;7.50;;;6.90;;
27921;SDS011;15261;50.356;10.340;2023-06-22T08:36:24;7.95;;;7.15;;
27921;SDS011;15261;50.356;10.340;2023-06-22T08:38:50;7.80;;;6.95;;
27921;SDS011;15261;50.356;10.340;2023-06-22T08:41:17;7.70;;;7.03;;
27921;SDS011;15261;50.356;10.340;2023-06-22T08:43:43;7.70;;;7.10;;
27921;SDS011;15261;50.356;10.340;2023-06-22T08:46:12;8.50;;;6.90;;
27921;SDS011;15261;50.356;10.340;2023-06-22T08:48:38;7.90;;;7.18;;
27921;SDS011;15261;50.356;10.340;2023-06-22T08:51:04;7.72;;;7.03;;
27921;SDS011;15261;50.356;10.340;2023-06-22T08:53:29;9.52;;;7.18;;
27921;SDS011;15261;50.356;10.340;2023-06-22T08:55:55;9.68;;;6.90;;
27921;SDS011;15261;50.356;10.340;2023-06-22T08:58:21;7.95;;;7.18;;
27921;SDS011;15261;50.356;10.340;2023-06-22T09:00:46;9.85;;;7.65;;
27921;SDS011;15261;50.356;10.340;2023-06-22T09:03:12;11.25;;;7.80;;
27921;SDS011;15261;50.356;10.340;2023-06-22T09:05:38;15.48;;;8.35;;
27921;SDS011;15261;50.356;10.340;2023-06-22T09:08:04;9.93;;;7.82;;
27921;SDS011;15261;50.356;10.340;2023-06-22T09:10:29;8.50;;;7.47;;
27921;SDS011;15261;50.356;10.340;2023-06-22T09:12:56;7.95;;;7.13;;
27921;SDS011;15261;50.356;10.340;2023-06-22T09:15:22;8.02;;;7.32;;
27921;SDS011;15261;50.356;10.340;2023-06-22T09:17:48;8.02;;;7.40;;
27921;SDS011;15261;50.356;10.340;2023-06-22T09:20:13;8.98;;;8.10;;
27921;SDS011;15261;50.356;10.340;2023-06-22T09:22:39;9.82;;;8.10;;
27921;SDS011;15261;50.356;10.340;2023-06-22T09:25:05;8.30;;;7.50;;
27921;SDS011;15261;50.356;10.340;2023-06-22T09:27:31;8.65;;;7.05;;
27921;SDS011;15261;50.356;10.340;2023-06-22T09:29:56;7.97;;;7.28;;
27921;SDS011;15261;50.356;10.340;2023-06-22T09:32:23;8.02;;;6.97;;
27921;SDS011;15261;50.356;10.340;2023-06-22T09:34:51;10.73;;;7.40;;
27921;SDS011;15261;50.356;10.340;2023-06-22T09:37:17;8.18;;;7.38;;
27921;SDS011;15261;50.356;10.340;2023-06-22T09:39:43;8.35;;;7.43;;
27921;SDS011;15261;50.356;10.340;2023-06-22T09:42:09;8.63;;;7.80;;
27921;SDS011;15261;50.356;10.340;2023-06-22T09:44:34;8.95;;;7.50;;
27921;SDS011;15261;50.356;10.340;2023-06-22T09:47:00;8.10;;;7.40;;
27921;SDS011;15261;50.356;10.340;2023-06-22T09:49:25;8.27;;;7.57;;
27921;SDS011;15261;50.356;10.340;2023-06-22T09:51:51;9.02;;;7.50;;
27921;SDS011;15261;50.356;10.340;2023-06-22T09:54:17;7.90;;;7.18;;
27921;SDS011;15261;50.356;10.340;2023-06-22T09:56:43;8.20;;;7.45;;
27921;SDS011;15261;50.356;10.340;2023-06-22T09:59:08;12.65;;;7.82;;
27921;SDS011;15261;50.356;10.340;2023-06-22T10:01:34;9.77;;;8.00;;
27921;SDS011;15261;50.356;10.340;2023-06-22T10:03:59;8.25;;;7.40;;
27921;SDS011;15261;50.356;10.340;2023-06-22T10:06:27;8.07;;;7.28;;
27921;SDS011;15261;50.356;10.340;2023-06-22T10:08:52;9.18;;;7.20;;
27921;SDS011;15261;50.356;10.340;2023-06-22T10:11:18;7.75;;;6.93;;
27921;SDS011;15261;50.356;10.340;2023-06-22T10:13:44;9.00;;;7.22;;
27921;SDS011;15261;50.356;10.340;2023-06-22T10:16:09;10.23;;;7.07;;
